Time;durP1;ratioP1;P1;durP2;ratioP2;P2;SDS_P1;SDS_P2;PMS_P1;PMS_P2;Temp;Humidity;BMP_temperature;BMP_pressure;BME280_temperature;BME280_humidity;BME280_pressure;Samples;Min_cycle;Max_cycle;Signal;HPM_P1;HPM_P2
2021/01/05 00:02:21;;;;;;;37.72;16.52;;;2.40;84.10;;;;;;5029728;28;20059;-66
2021/01/05 00:04:47;;;;;;;35.25;16.45;;;2.50;84.10;;;;;;5028752;28;20473;-66
2021/01/05 00:07:13;;;;;;;34.35;16.17;;;2.50;84.10;;;;;;5030776;28;20030;-66
2021/01/05 00:09:38;;;;;;;32.42;16.23;;;2.50;84.00;;;;;;5030198;28;20101;-66
2021/01/05 00:12:07;;;;;;;36.50;16.90;;;2.50;84.00;;;;;;5030046;28;20079;-66
2021/01/05 00:14:34;;;;;;;34.75;15.90;;;2.50;83.90;;;;;;5027294;28;20053;-66
2021/01/05 00:17:00;;;;;;;35.47;17.42;;;2.60;84.00;;;;;;5030657;28;20029;-66
2021/01/05 00:19:26;;;;;;;35.00;16.80;;;2.50;83.80;;;;;;5028727;28;20436;-66
2021/01/05 00:21:53;;;;;;;36.55;17.33;;;2.50;83.90;;;;;;5030080;28;20025;-66
2021/01/05 00:24:19;;;;;;;36.45;16.83;;;2.50;84.00;;;;;;5027273;28;20213;-66
2021/01/05 00:26:45;;;;;;;39.67;18.38;;;2.50;84.00;;;;;;5014136;28;20029;-66
2021/01/05 00:29:12;;;;;;;36.47;17.13;;;2.50;84.00;;;;;;5029407;28;20032;-66
2021/01/05 00:31:38;;;;;;;36.30;17.25;;;2.50;84.00;;;;;;5029784;28;20109;-66
2021/01/05 00:34:04;;;;;;;39.67;18.92;;;2.50;84.00;;;;;;5028776;28;20037;-66
2021/01/05 00:36:30;;;;;;;34.75;18.02;;;2.50;84.00;;;;;;5030783;28;20060;-66
2021/01/05 00:38:56;;;;;;;36.50;17.48;;;2.50;84.00;;;;;;5031011;28;20080;-66
2021/01/05 00:41:21;;;;;;;43.10;18.40;;;2.60;84.00;;;;;;5029094;28;20175;-66
2021/01/05 00:43:50;;;;;;;38.30;17.10;;;2.60;83.90;;;;;;5029868;28;20546;-66
2021/01/05 00:46:20;;;;;;;35.30;16.95;;;2.60;83.90;;;;;;5029695;28;20026;-66
2021/01/05 00:48:46;;;;;;;40.42;18.90;;;2.60;83.90;;;;;;5028242;28;20041;-66
2021/01/05 00:51:13;;;;;;;38.72;17.75;;;2.60;84.00;;;;;;5011388;28;20140;-66
2021/01/05 00:53:38;;;;;;;37.47;17.10;;;2.60;84.10;;;;;;5029302;28;20525;-66
2021/01/05 00:56:05;;;;;;;38.85;17.65;;;2.60;84.10;;;;;;5029185;28;20033;-66
2021/01/05 00:58:30;;;;;;;36.70;17.90;;;2.60;84.00;;;;;;5024836;28;20033;-66
2021/01/05 01:00:56;;;;;;;36.20;17.25;;;2.60;83.90;;;;;;5030332;28;20060;-66
2021/01/05 01:03:22;;;;;;;34.65;16.42;;;2.60;83.70;;;;;;5030084;28;20073;-66
2021/01/05 01:05:48;;;;;;;33.92;17.02;;;2.50;83.70;;;;;;5029917;28;20045;-65
2021/01/05 01:08:17;;;;;;;35.95;16.67;;;2.50;83.90;;;;;;5029637;28;20561;-65
2021/01/05 01:10:42;;;;;;;35.20;16.67;;;2.50;84.20;;;;;;5029625;28;20053;-65
2021/01/05 01:13:09;;;;;;;37.08;17.40;;;2.40;84.70;;;;;;5030178;28;20065;-66
2021/01/05 01:15:36;;;;;;;33.63;17.17;;;2.40;84.20;;;;;;5029660;28;20156;-66
2021/01/05 01:18:03;;;;;;;34.92;16.98;;;2.40;84.30;;;;;;5030365;28;20173;-66
2021/01/05 01:20:30;;;;;;;37.17;16.15;;;2.50;84.30;;;;;;5029200;28;20116;-66
2021/01/05 01:22:55;;;;;;;34.90;16.80;;;2.50;84.20;;;;;;5029767;28;20032;-66
2021/01/05 01:25:21;;;;;;;36.00;16.83;;;2.50;84.10;;;;;;5022820;28;20022;-66
2021/01/05 01:27:46;;;;;;;34.47;15.82;;;2.50;84.20;;;;;;5028512;28;20053;-66
2021/01/05 01:30:13;;;;;;;31.13;15.90;;;2.50;84.30;;;;;;5033904;28;20099;-66
2021/01/05 01:32:39;;;;;;;32.40;16.33;;;2.60;84.30;;;;;;5033543;28;20030;-66
2021/01/05 01:35:06;;;;;;;36.78;17.15;;;2.60;84.30;;;;;;5032709;28;20040;-66
2021/01/05 01:37:32;;;;;;;34.38;16.20;;;2.60;84.40;;;;;;5033214;28;20463;-66
2021/01/05 01:39:58;;;;;;;32.13;16.20;;;2.60;84.30;;;;;;5032362;28;20057;-66
2021/01/05 01:42:24;;;;;;;30.83;15.32;;;2.60;84.30;;;;;;5032292;28;20053;-66
2021/01/05 01:44:50;;;;;;;28.90;14.05;;;2.60;84.20;;;;;;5031711;28;20366;-66
2021/01/05 01:47:48;;;;;;;31.23;15.63;;;2.60;84.20;;;;;;5033198;28;20022;-66
2021/01/05 01:50:22;;;;;;;26.58;13.95;;;2.50;84.30;;;;;;4988426;28;20046;-66
2021/01/05 01:52:57;;;;;;;30.42;15.30;;;2.60;84.40;;;;;;5032250;28;20040;-66
2021/01/05 01:55:35;;;;;;;25.85;13.68;;;2.60;84.40;;;;;;5032260;28;20022;-66
2021/01/05 01:58:23;;;;;;;32.03;14.20;;;2.60;84.30;;;;;;5031391;28;20606;-66
2021/01/05 02:01:00;;;;;;;25.05;13.77;;;2.60;84.30;;;;;;5027934;28;20519;-66
2021/01/05 02:03:34;;;;;;;29.58;13.95;;;2.60;84.30;;;;;;5014558;28;20531;-66
2021/01/05 02:06:37;;;;;;;28.25;13.18;;;2.70;84.30;;;;;;5031731;28;20092;-66
2021/01/05 02:09:10;;;;;;;;;;;2.60;84.20;;;;;;5015199;28;20057;-66
2021/01/05 02:11:54;;;;;;;;;;;2.60;84.30;;;;;;5014585;28;19955;-66
2021/01/05 02:14:34;;;;;;;21.02;11.65;;;2.60;84.30;;;;;;5030917;28;19913;-66
2021/01/05 02:17:33;;;;;;;24.25;13.32;;;2.50;84.20;;;;;;5032547;28;20029;-66
2021/01/05 02:20:26;;;;;;;26.42;12.82;;;2.40;84.40;;;;;;5020406;28;20037;-66
2021/01/05 02:22:54;;;;;;;;;;;2.40;84.60;;;;;;5032078;28;20029;-66
2021/01/05 02:25:26;;;;;;;24.67;12.55;;;2.40;84.70;;;;;;5027814;28;20427;-66
2021/01/05 02:28:00;;;;;;;17.37;9.60;;;2.40;84.60;;;;;;5014080;28;20034;-66
2021/01/05 02:30:34;;;;;;;25.10;12.70;;;2.40;85.30;;;;;;5030486;28;20038;-66
2021/01/05 02:33:27;;;;;;;25.10;13.23;;;2.40;84.70;;;;;;5031675;28;20037;-66
2021/01/05 02:36:23;;;;;;;23.85;13.50;;;2.50;84.70;;;;;;5030876;28;20029;-66
2021/01/05 02:39:16;;;;;;;25.17;13.48;;;2.50;84.70;;;;;;5021057;28;20649;-66
2021/01/05 02:42:00;;;;;;;;;;;2.50;84.70;;;;;;5031910;28;20033;-66
2021/01/05 02:44:31;;;;;;;24.00;12.75;;;2.50;84.70;;;;;;5037020;28;19913;-66
2021/01/05 02:47:35;;;;;;;22.63;12.02;;;2.50;84.70;;;;;;5043945;28;20029;-66
2021/01/05 02:50:45;;;;;;;25.20;12.80;;;2.50;84.60;;;;;;5001880;28;20457;-66
2021/01/05 02:53:29;;;;;;;22.40;12.52;;;2.50;84.80;;;;;;5013290;28;20046;-66
2021/01/05 02:56:32;;;;;;;22.90;12.50;;;2.50;84.90;;;;;;5030370;28;20072;-66
2021/01/05 02:59:22;;;;;;;23.75;13.23;;;2.50;84.90;;;;;;5031678;28;20033;-66
2021/01/05 03:02:13;;;;;;;24.60;12.20;;;2.50;84.80;;;;;;5030750;28;20063;-66
2021/01/05 03:04:38;;;;;;;25.90;12.45;;;2.50;84.90;;;;;;5030199;28;20029;-66
2021/01/05 03:07:13;;;;;;;23.63;12.90;;;2.50;84.90;;;;;;5030973;28;20080;-66
2021/01/05 03:09:50;;;;;;;23.75;12.93;;;2.60;85.00;;;;;;5031030;28;20469;-66
2021/01/05 03:12:36;;;;;;;23.58;12.95;;;2.60;84.90;;;;;;5024742;28;20443;-66
2021/01/05 03:15:17;;;;;;;21.20;12.38;;;2.60;85.50;;;;;;5029837;28;20054;-66
2021/01/05 03:17:49;;;;;;;25.90;13.73;;;2.60;84.90;;;;;;5013445;28;20091;-66
2021/01/05 03:20:32;;;;;;;24.60;13.63;;;2.60;84.90;;;;;;5031173;28;20567;-66
2021/01/05 03:23:00;;;;;;;24.40;13.00;;;2.70;84.90;;;;;;5030826;28;20030;-66
2021/01/05 03:25:29;;;;;;;22.70;12.07;;;2.70;84.90;;;;;;5030174;28;20029;-66
2021/01/05 03:27:58;;;;;;;25.65;12.52;;;2.70;84.90;;;;;;5030610;28;20033;-66
2021/01/05 03:30:43;;;;;;;23.40;12.95;;;2.70;84.80;;;;;;5013381;28;20025;-65
2021/01/05 03:33:08;;;;;;;22.00;12.23;;;2.80;84.80;;;;;;5028069;28;20505;-66
2021/01/05 03:35:34;;;;;;;21.33;12.05;;;2.70;84.60;;;;;;5030498;28;20033;-66
2021/01/05 03:38:00;;;;;;;20.65;12.13;;;2.70;84.60;;;;;;5030392;28;20180;-66
2021/01/05 03:40:26;;;;;;;19.65;11.57;;;2.70;84.70;;;;;;5030846;28;20402;-66
2021/01/05 03:42:52;;;;;;;21.70;12.10;;;2.70;84.70;;;;;;5030386;28;20087;-66
2021/01/05 03:45:22;;;;;;;20.77;12.05;;;2.70;84.60;;;;;;5030386;28;20036;-66
2021/01/05 03:47:47;;;;;;;23.42;12.63;;;2.60;84.60;;;;;;5029832;28;20485;-66
2021/01/05 03:50:15;;;;;;;20.83;10.73;;;2.60;84.80;;;;;;5030353;28;20033;-65
2021/01/05 03:52:40;;;;;;;22.00;11.73;;;2.60;84.90;;;;;;5011755;28;20037;-66
2021/01/05 03:55:07;;;;;;;19.65;11.85;;;2.60;84.80;;;;;;5027654;28;20041;-66
2021/01/05 03:57:32;;;;;;;23.55;11.48;;;2.60;85.00;;;;;;5012618;28;20389;-66
2021/01/05 03:59:58;;;;;;;21.70;12.10;;;2.60;85.10;;;;;;5030593;28;20033;-66
2021/01/05 04:02:23;;;;;;;22.55;11.90;;;2.60;85.00;;;;;;5029989;28;20389;-66
2021/01/05 04:04:49;;;;;;;23.50;12.15;;;2.60;85.00;;;;;;5012251;28;20503;-66
2021/01/05 04:07:14;;;;;;;20.50;11.73;;;2.60;84.90;;;;;;5029957;28;20118;-66
2021/01/05 04:09:40;;;;;;;21.45;11.90;;;2.70;84.90;;;;;;5030489;28;20666;-66
2021/01/05 04:12:06;;;;;;;22.45;12.05;;;2.60;84.90;;;;;;5029337;28;20100;-66
2021/01/05 04:14:31;;;;;;;19.27;10.80;;;2.70;84.80;;;;;;5029994;28;20041;-66
2021/01/05 04:16:57;;;;;;;22.63;11.20;;;2.60;84.80;;;;;;5030262;28;20092;-66
2021/01/05 04:19:22;;;;;;;21.08;10.93;;;2.60;84.90;;;;;;5030152;28;20390;-66
2021/01/05 04:21:51;;;;;;;19.70;11.45;;;2.60;84.90;;;;;;5021615;28;20501;-66
2021/01/05 04:24:18;;;;;;;20.85;11.50;;;2.60;84.90;;;;;;5026650;28;20042;-66
2021/01/05 04:26:44;;;;;;;21.35;11.77;;;2.60;85.10;;;;;;5022643;28;20051;-66
2021/01/05 04:29:10;;;;;;;19.27;11.60;;;2.60;85.10;;;;;;5030407;28;20041;-66
2021/01/05 04:31:38;;;;;;;22.63;12.43;;;2.60;85.10;;;;;;5011777;28;20389;-66
2021/01/05 04:34:05;;;;;;;23.88;12.77;;;2.60;85.10;;;;;;5029263;28;20206;-66
2021/01/05 04:36:30;;;;;;;23.23;11.25;;;2.60;85.00;;;;;;5030043;28;20036;-66
2021/01/05 04:38:56;;;;;;;21.77;11.55;;;2.60;85.00;;;;;;5030268;28;20120;-66
2021/01/05 04:41:24;;;;;;;22.67;11.82;;;2.70;85.00;;;;;;5031966;28;20035;-66
2021/01/05 04:43:54;;;;;;;22.63;11.45;;;2.70;85.00;;;;;;5042949;28;20028;-66
2021/01/05 04:46:20;;;;;;;22.13;12.38;;;2.70;84.90;;;;;;5032241;28;20028;-66
2021/01/05 04:49:01;;;;;;;20.77;11.38;;;2.70;84.80;;;;;;5024598;28;20441;-66
2021/01/05 04:51:27;;;;;;;20.25;10.98;;;2.70;84.90;;;;;;5012186;28;20046;-66
2021/01/05 04:54:02;;;;;;;22.58;11.98;;;2.70;84.80;;;;;;5028485;28;20079;-66
2021/01/05 04:56:55;;;;;;;21.40;11.15;;;2.70;84.90;;;;;;5012689;28;20029;-66
2021/01/05 04:59:27;;;;;;;20.75;11.25;;;2.70;85.00;;;;;;5030732;28;20030;-66
2021/01/05 05:01:53;;;;;;;;;;;2.70;85.00;;;;;;5034624;28;20401;-66
2021/01/05 05:04:24;;;;;;;18.95;11.10;;;2.70;84.80;;;;;;5032336;28;20003;-66
2021/01/05 05:07:11;;;;;;;21.43;12.43;;;2.80;84.70;;;;;;5015614;28;20026;-66
2021/01/05 05:10:29;;;;;;;19.85;10.75;;;2.80;84.80;;;;;;5016020;28;20048;-66
2021/01/05 05:13:25;;;;;;;23.13;12.48;;;2.80;84.80;;;;;;4953133;29;20035;-66
2021/01/05 05:16:52;;;;;;;23.15;12.05;;;2.70;84.80;;;;;;4952992;29;20106;-66
2021/01/05 05:19:29;;;;;;;27.25;13.93;;;2.80;84.90;;;;;;5005280;28;20574;-66
2021/01/05 05:22:08;;;;;;;21.95;12.68;;;2.70;84.80;;;;;;5015218;28;20140;-66
2021/01/05 05:24:42;;;;;;;24.05;13.13;;;2.70;84.80;;;;;;5029659;28;20018;-66
2021/01/05 05:27:24;;;;;;;24.67;13.07;;;2.70;84.80;;;;;;5029230;28;20022;-66
2021/01/05 05:30:05;;;;;;;22.08;12.65;;;2.70;84.90;;;;;;5034045;28;20032;-66
2021/01/05 05:32:59;;;;;;;24.58;12.50;;;2.70;84.90;;;;;;5033383;28;20049;-66
2021/01/05 05:36:03;;;;;;;26.90;13.43;;;2.70;84.80;;;;;;5032179;28;20038;-66
2021/01/05 05:38:43;;;;;;;22.45;11.93;;;2.70;84.90;;;;;;5028090;28;20041;-66
2021/01/05 05:41:56;;;;;;;22.70;12.40;;;2.70;84.80;;;;;;5032220;28;20489;-66
2021/01/05 05:44:42;;;;;;;26.27;13.18;;;2.70;84.90;;;;;;5012486;28;20104;-66
2021/01/05 05:47:28;;;;;;;24.98;12.65;;;2.60;84.80;;;;;;5032651;28;20431;-66
2021/01/05 05:50:08;;;;;;;22.05;12.25;;;2.70;85.00;;;;;;5028268;23;20046;-70
2021/01/05 05:52:52;;;;;;;24.17;11.93;;;2.60;85.10;;;;;;5012810;28;20029;-70
2021/01/05 05:55:33;;;;;;;24.70;12.05;;;2.60;85.10;;;;;;5012421;28;20077;-69
2021/01/05 05:58:01;;;;;;;27.42;13.40;;;2.60;85.10;;;;;;5027703;28;20036;-70
2021/01/05 06:00:32;;;;;;;26.83;13.88;;;2.60;85.20;;;;;;4993884;28;20030;-70
2021/01/05 06:03:00;;;;;;;23.48;13.52;;;2.60;85.20;;;;;;5011882;28;20029;-69
2021/01/05 06:05:34;;;;;;;24.48;12.98;;;2.60;85.20;;;;;;5005278;28;20485;-69
2021/01/05 06:08:00;;;;;;;24.25;13.18;;;2.60;85.20;;;;;;5028804;28;20029;-70
2021/01/05 06:10:26;;;;;;;25.13;13.50;;;2.60;85.20;;;;;;5011702;28;20103;-69
2021/01/05 06:12:52;;;;;;;24.63;13.00;;;2.60;85.20;;;;;;5029032;28;20489;-70
2021/01/05 06:15:18;;;;;;;25.73;13.27;;;2.60;85.30;;;;;;5015461;28;20440;-70
2021/01/05 06:17:44;;;;;;;25.13;13.40;;;2.60;85.30;;;;;;4999738;28;20030;-70
2021/01/05 06:20:10;;;;;;;26.45;13.52;;;2.70;85.30;;;;;;5012852;28;20033;-69
2021/01/05 06:22:36;;;;;;;30.27;15.02;;;2.70;85.40;;;;;;5017497;28;20049;-70
2021/01/05 06:25:02;;;;;;;30.13;15.32;;;2.70;85.40;;;;;;5013681;28;20077;-70
2021/01/05 06:27:28;;;;;;;27.05;13.70;;;2.80;85.30;;;;;;4999734;28;20071;-68
2021/01/05 06:29:53;;;;;;;25.88;13.23;;;2.80;85.30;;;;;;5009294;28;20464;-69
2021/01/05 06:32:19;;;;;;;29.50;14.10;;;2.80;85.20;;;;;;4996479;28;20030;-68
2021/01/05 06:34:45;;;;;;;27.35;14.70;;;2.70;85.70;;;;;;5007238;28;20056;-67
2021/01/05 06:37:10;;;;;;;23.02;13.15;;;2.80;85.30;;;;;;5010556;28;20037;-69
2021/01/05 06:39:36;;;;;;;25.77;13.65;;;2.70;85.30;;;;;;5016317;28;20056;-67
2021/01/05 06:42:02;;;;;;;26.05;13.10;;;2.70;85.30;;;;;;5017771;28;20520;-67
2021/01/05 06:44:27;;;;;;;24.13;13.20;;;2.80;85.40;;;;;;5018927;28;20026;-67
2021/01/05 06:46:54;;;;;;;26.98;14.07;;;2.80;85.40;;;;;;5014917;28;20032;-67
2021/01/05 06:49:19;;;;;;;27.60;14.02;;;2.80;85.30;;;;;;5019084;28;20026;-70
2021/01/05 06:51:45;;;;;;;25.42;14.05;;;2.80;85.20;;;;;;5013848;28;20174;-69
2021/01/05 06:54:11;;;;;;;24.90;12.70;;;2.80;85.20;;;;;;5009198;28;20058;-67
2021/01/05 06:56:53;;;;;;;27.58;13.40;;;2.90;85.20;;;;;;5012191;28;20552;-67
2021/01/05 06:59:20;;;;;;;29.70;13.70;;;2.80;85.10;;;;;;4992758;28;20019;-67
2021/01/05 07:01:50;;;;;;;24.05;12.93;;;2.90;85.10;;;;;;5010871;28;20088;-67
2021/01/05 07:04:16;;;;;;;25.02;13.15;;;2.80;85.00;;;;;;5010656;28;20041;-67
2021/01/05 07:06:41;;;;;;;26.20;13.43;;;2.80;85.10;;;;;;5011804;28;20026;-69
2021/01/05 07:09:07;;;;;;;27.23;13.32;;;2.80;85.10;;;;;;5021947;28;20026;-66
2021/01/05 07:11:33;;;;;;;25.45;12.95;;;2.80;85.20;;;;;;5011601;28;20030;-67
2021/01/05 07:13:58;;;;;;;25.25;12.55;;;2.80;85.20;;;;;;4993422;28;20026;-69
2021/01/05 07:16:24;;;;;;;26.67;13.07;;;2.80;85.30;;;;;;5011540;28;20037;-69
2021/01/05 07:18:49;;;;;;;26.27;12.98;;;2.80;85.30;;;;;;5025740;28;20101;-73
2021/01/05 07:21:15;;;;;;;25.13;13.00;;;2.80;85.30;;;;;;5017301;28;20076;-73
2021/01/05 07:23:40;;;;;;;25.63;13.40;;;2.80;85.20;;;;;;5011904;28;20034;-74
2021/01/05 07:26:06;;;;;;;22.95;12.90;;;2.80;85.20;;;;;;5010931;28;20030;-67
2021/01/05 07:28:31;;;;;;;23.10;11.88;;;2.80;85.30;;;;;;5011812;28;20025;-70
2021/01/05 07:30:57;;;;;;;24.85;13.02;;;2.80;85.20;;;;;;5011496;28;20026;-70
2021/01/05 07:33:22;;;;;;;25.00;12.60;;;2.80;85.30;;;;;;5011234;28;20096;-68
2021/01/05 07:35:48;;;;;;;23.95;12.82;;;2.80;85.40;;;;;;5007537;28;20089;-67
2021/01/05 07:38:13;;;;;;;25.98;12.73;;;2.80;85.40;;;;;;5008930;28;20057;-67
2021/01/05 07:40:39;;;;;;;23.73;12.75;;;2.80;85.40;;;;;;5011464;28;20183;-68
2021/01/05 07:43:04;;;;;;;23.33;12.18;;;2.80;85.20;;;;;;5010904;28;20057;-70
2021/01/05 07:45:30;;;;;;;24.80;13.07;;;2.80;85.20;;;;;;5010461;28;20030;-69
2021/01/05 07:47:56;;;;;;;27.75;12.75;;;2.80;85.20;;;;;;5011388;28;20037;-70
2021/01/05 07:50:25;;;;;;;24.70;12.13;;;2.80;85.30;;;;;;5015637;28;20338;-68
2021/01/05 07:52:52;;;;;;;23.08;12.25;;;2.80;85.30;;;;;;5010149;28;20116;-68
2021/01/05 07:55:21;;;;;;;25.45;11.95;;;2.90;85.40;;;;;;5009488;28;20095;-70
2021/01/05 07:57:48;;;;;;;23.83;11.27;;;2.90;85.30;;;;;;5010350;28;20033;-68
2021/01/05 08:00:19;;;;;;;20.17;11.10;;;2.80;85.30;;;;;;4993332;28;20026;-69
2021/01/05 08:02:45;;;;;;;22.90;10.40;;;2.90;85.40;;;;;;4991484;28;20030;-67
2021/01/05 08:05:14;;;;;;;21.50;11.13;;;2.80;85.30;;;;;;5006006;28;20034;-68
2021/01/05 08:07:39;;;;;;;21.13;11.73;;;2.80;85.30;;;;;;4997601;28;20045;-69
2021/01/05 08:10:06;;;;;;;26.42;14.35;;;2.80;85.40;;;;;;5027595;28;20052;-68
2021/01/05 08:12:32;;;;;;;32.90;14.95;;;2.80;85.40;;;;;;5010650;28;20057;-69
2021/01/05 08:14:57;;;;;;;23.55;11.82;;;2.90;85.70;;;;;;5009804;28;20116;-69
2021/01/05 08:17:23;;;;;;;23.35;11.57;;;2.90;85.60;;;;;;5010781;28;20037;-69
2021/01/05 08:19:49;;;;;;;22.67;11.23;;;2.90;85.40;;;;;;5022632;28;20530;-69
2021/01/05 08:22:15;;;;;;;21.63;11.15;;;3.00;85.40;;;;;;5013830;28;20022;-69
2021/01/05 08:24:41;;;;;;;20.13;10.80;;;3.00;85.40;;;;;;5009962;28;20076;-69
2021/01/05 08:27:08;;;;;;;21.42;12.02;;;3.00;85.30;;;;;;5010486;28;20026;-69
2021/01/05 08:29:34;;;;;;;20.77;10.75;;;3.00;85.30;;;;;;5017809;28;20033;-69
2021/01/05 08:32:00;;;;;;;22.38;12.02;;;3.00;85.20;;;;;;5011455;28;20378;-68
2021/01/05 08:34:25;;;;;;;21.15;11.82;;;3.00;85.20;;;;;;5010397;28;20101;-69
2021/01/05 08:36:51;;;;;;;19.58;10.90;;;3.00;85.30;;;;;;5002579;28;20018;-69
2021/01/05 08:39:16;;;;;;;19.27;10.90;;;3.10;85.20;;;;;;5027871;28;20098;-69
2021/01/05 08:41:44;;;;;;;23.48;11.85;;;3.10;85.20;;;;;;5011515;28;20486;-69
2021/01/05 08:44:10;;;;;;;22.00;11.27;;;3.10;85.10;;;;;;4992301;28;20034;-69
2021/01/05 08:46:37;;;;;;;19.35;10.60;;;3.10;85.20;;;;;;5010386;28;20037;-69
2021/01/05 08:49:04;;;;;;;20.42;11.40;;;3.10;85.20;;;;;;5012602;28;20381;-69
2021/01/05 08:51:30;;;;;;;21.75;11.88;;;3.10;85.10;;;;;;5016881;28;20123;-68
2021/01/05 08:53:56;;;;;;;17.90;10.40;;;3.10;85.20;;;;;;5009688;28;20033;-68
2021/01/05 08:56:25;;;;;;;19.88;11.13;;;3.20;85.20;;;;;;5010605;28;20030;-68
2021/01/05 08:58:51;;;;;;;16.33;9.98;;;3.20;85.10;;;;;;5010442;28;20589;-68
2021/01/05 09:01:18;;;;;;;18.60;10.98;;;3.20;85.00;;;;;;5011376;28;20026;-68
2021/01/05 09:03:43;;;;;;;17.98;10.25;;;3.20;85.10;;;;;;5010222;28;20034;-68
2021/01/05 09:06:11;;;;;;;18.42;10.52;;;3.20;85.10;;;;;;4991842;28;20029;-68
2021/01/05 09:08:37;;;;;;;21.33;11.10;;;3.20;85.10;;;;;;5010297;28;20025;-68
2021/01/05 09:11:05;;;;;;;21.35;11.02;;;3.20;85.00;;;;;;5016307;28;20108;-68
2021/01/05 09:13:31;;;;;;;19.08;10.70;;;3.20;84.90;;;;;;5021537;28;20037;-68
2021/01/05 09:15:56;;;;;;;20.25;11.57;;;3.20;84.80;;;;;;4991872;28;20844;-68
2021/01/05 09:18:23;;;;;;;17.15;10.55;;;3.30;84.90;;;;;;5006867;28;20031;-68
2021/01/05 09:20:51;;;;;;;22.42;10.90;;;3.30;84.90;;;;;;4998522;28;20029;-68
2021/01/05 09:23:21;;;;;;;17.63;10.73;;;3.30;84.90;;;;;;5017777;28;20496;-73
2021/01/05 09:25:51;;;;;;;21.92;10.55;;;3.30;84.90;;;;;;5000604;28;20506;-69
2021/01/05 09:28:18;;;;;;;19.55;10.68;;;3.30;84.80;;;;;;5011504;28;20073;-68
2021/01/05 09:30:49;;;;;;;20.23;10.50;;;3.20;84.90;;;;;;5011439;28;20482;-71
2021/01/05 09:33:15;;;;;;;18.65;11.10;;;3.20;85.00;;;;;;4994326;28;20037;-68
2021/01/05 09:35:41;;;;;;;18.23;10.25;;;3.20;85.00;;;;;;4991768;28;20038;-68
2021/01/05 09:38:10;;;;;;;19.00;11.25;;;3.20;85.10;;;;;;5004604;28;20041;-68
2021/01/05 09:40:39;;;;;;;21.98;11.25;;;3.20;85.00;;;;;;5010030;28;20088;-68
2021/01/05 09:43:06;;;;;;;18.17;10.65;;;3.20;85.00;;;;;;5009643;28;20030;-68
2021/01/05 09:45:32;;;;;;;19.20;10.32;;;3.20;85.00;;;;;;5009677;28;20134;-68
2021/01/05 09:48:08;;;;;;;19.75;11.00;;;3.20;85.10;;;;;;5012996;28;20065;-68
2021/01/05 09:50:34;;;;;;;23.15;11.95;;;3.20;85.10;;;;;;5028006;28;20036;-68
2021/01/05 09:52:59;;;;;;;17.23;10.15;;;3.20;85.10;;;;;;5013541;28;20061;-68
2021/01/05 09:55:25;;;;;;;19.17;10.02;;;3.20;84.90;;;;;;5012366;28;20466;-68
2021/01/05 09:57:52;;;;;;;16.90;10.45;;;3.20;85.10;;;;;;5012102;28;20026;-67
2021/01/05 10:00:19;;;;;;;18.33;10.60;;;3.10;85.40;;;;;;4994622;28;20029;-67
2021/01/05 10:02:44;;;;;;;18.20;10.90;;;3.20;85.50;;;;;;5004158;28;20513;-68
2021/01/05 10:05:10;;;;;;;19.83;10.65;;;3.20;85.50;;;;;;5011496;28;20030;-67
2021/01/05 10:07:36;;;;;;;21.83;11.65;;;3.10;85.30;;;;;;5010932;28;20098;-67
2021/01/05 10:10:02;;;;;;;19.70;10.85;;;3.00;85.50;;;;;;5004817;28;20065;-67
2021/01/05 10:12:28;;;;;;;22.50;12.05;;;3.10;85.80;;;;;;5011963;28;20061;-67
2021/01/05 10:14:53;;;;;;;23.83;11.70;;;3.10;85.80;;;;;;5011153;28;20022;-68
2021/01/05 10:17:19;;;;;;;19.70;10.70;;;3.10;85.70;;;;;;5012288;28;20068;-67
2021/01/05 10:19:45;;;;;;;24.85;12.48;;;3.10;85.60;;;;;;5012457;28;20068;-67
2021/01/05 10:22:10;;;;;;;25.05;12.73;;;3.10;85.70;;;;;;5011714;28;20029;-67
2021/01/05 10:24:36;;;;;;;19.25;11.05;;;3.10;85.70;;;;;;4993850;28;20072;-67
2021/01/05 10:27:02;;;;;;;23.25;11.45;;;3.20;85.50;;;;;;5012446;28;20030;-67
2021/01/05 10:29:27;;;;;;;30.20;11.52;;;3.20;85.40;;;;;;5013330;28;20108;-68
2021/01/05 10:31:53;;;;;;;23.25;12.23;;;3.20;85.20;;;;;;5012542;28;20036;-67
2021/01/05 10:34:21;;;;;;;21.88;11.30;;;3.20;85.20;;;;;;5011593;28;20176;-67
2021/01/05 10:36:51;;;;;;;20.40;10.55;;;3.10;85.80;;;;;;5001977;28;20038;-68
2021/01/05 10:39:17;;;;;;;20.52;11.43;;;3.10;85.60;;;;;;5015737;28;20033;-68
2021/01/05 10:41:44;;;;;;;22.73;11.50;;;3.00;85.60;;;;;;5012474;28;20029;-68
2021/01/05 10:44:12;;;;;;;24.13;12.80;;;3.00;85.60;;;;;;5001267;28;20161;-68
2021/01/05 10:46:38;;;;;;;23.23;11.85;;;3.00;85.80;;;;;;5015350;28;20044;-68
2021/01/05 10:49:04;;;;;;;24.20;11.50;;;3.00;85.80;;;;;;5011418;28;20499;-67
2021/01/05 10:51:30;;;;;;;22.88;11.23;;;3.00;85.80;;;;;;5008007;28;20073;-68
2021/01/05 10:53:56;;;;;;;21.52;11.00;;;2.90;85.90;;;;;;5010802;28;20034;-69
2021/01/05 10:56:21;;;;;;;24.80;11.65;;;2.90;86.00;;;;;;5011886;28;20541;-67
2021/01/05 10:58:48;;;;;;;26.70;12.93;;;2.80;86.40;;;;;;5011311;28;20486;-69
2021/01/05 11:01:14;;;;;;;27.95;12.52;;;2.90;86.40;;;;;;5011149;28;20109;-67
2021/01/05 11:03:39;;;;;;;25.10;11.60;;;2.90;86.30;;;;;;5011472;28;20105;-67
2021/01/05 11:06:07;;;;;;;24.77;11.88;;;3.00;86.10;;;;;;5011129;28;20101;-68
2021/01/05 11:08:32;;;;;;;22.70;12.10;;;3.00;86.00;;;;;;5011644;28;20730;-68
2021/01/05 11:11:00;;;;;;;26.23;12.32;;;3.00;85.90;;;;;;5023413;28;20039;-68
2021/01/05 11:13:27;;;;;;;24.02;11.50;;;3.00;85.90;;;;;;5019663;28;20113;-70
2021/01/05 11:15:53;;;;;;;24.05;11.93;;;3.00;85.70;;;;;;5011146;28;20030;-68
2021/01/05 11:18:18;;;;;;;20.75;10.98;;;3.00;85.70;;;;;;5012091;28;20045;-68
2021/01/05 11:20:44;;;;;;;23.58;12.00;;;3.00;85.90;;;;;;5029468;28;20026;-68
2021/01/05 11:23:10;;;;;;;27.63;12.35;;;2.90;86.10;;;;;;5011586;28;20449;-68
2021/01/05 11:25:35;;;;;;;25.73;12.55;;;2.90;86.20;;;;;;5011005;28;20389;-68
2021/01/05 11:28:05;;;;;;;29.38;13.65;;;2.90;86.20;;;;;;5013009;28;20034;-69
2021/01/05 11:30:31;;;;;;;19.45;11.48;;;2.90;86.40;;;;;;5018496;28;20166;-69
2021/01/05 11:32:56;;;;;;;28.70;13.82;;;2.90;86.40;;;;;;4993455;28;20025;-69
2021/01/05 11:35:22;;;;;;;22.52;12.40;;;3.00;86.30;;;;;;5010786;28;20033;-68
2021/01/05 11:37:48;;;;;;;22.95;11.68;;;3.00;86.20;;;;;;4993770;28;20053;-68
2021/01/05 11:40:15;;;;;;;26.38;12.00;;;3.00;86.20;;;;;;5028837;28;20397;-68
2021/01/05 11:42:41;;;;;;;27.00;12.10;;;3.10;86.00;;;;;;4997505;28;20091;-69
2021/01/05 11:45:09;;;;;;;21.73;11.73;;;3.10;86.00;;;;;;5010518;28;20033;-68
2021/01/05 11:47:35;;;;;;;28.02;12.75;;;3.10;86.00;;;;;;5010934;28;20047;-68
2021/01/05 11:50:03;;;;;;;27.73;12.13;;;3.20;86.00;;;;;;5092016;22;20041;-67
2021/01/05 11:52:30;;;;;;;25.40;11.85;;;3.20;86.00;;;;;;5042566;28;20104;-67
2021/01/05 11:54:57;;;;;;;24.48;12.35;;;3.20;86.00;;;;;;5048538;28;20020;-67
2021/01/05 11:57:22;;;;;;;27.60;13.10;;;3.20;86.10;;;;;;5051132;28;20040;-67
2021/01/05 11:59:48;;;;;;;25.58;12.43;;;3.30;86.10;;;;;;5050327;28;20025;-67
2021/01/05 12:02:13;;;;;;;29.08;12.55;;;3.30;86.00;;;;;;5050351;28;20060;-67
2021/01/05 12:04:39;;;;;;;23.60;12.38;;;3.30;85.90;;;;;;5049420;28;20045;-67
2021/01/05 12:07:05;;;;;;;27.10;12.20;;;3.50;85.90;;;;;;5050103;28;20017;-67
2021/01/05 12:09:30;;;;;;;26.38;11.80;;;3.40;85.80;;;;;;5050269;28;20095;-67
2021/01/05 12:11:58;;;;;;;23.10;12.43;;;3.50;85.80;;;;;;5050207;28;20052;-67
2021/01/05 12:14:25;;;;;;;25.38;11.43;;;3.60;85.70;;;;;;5047346;28;20066;-67
2021/01/05 12:16:51;;;;;;;23.38;12.18;;;3.60;85.50;;;;;;5050286;28;20052;-67
2021/01/05 12:19:19;;;;;;;25.17;11.05;;;3.60;85.50;;;;;;5049990;28;20099;-67
2021/01/05 12:21:45;;;;;;;21.85;10.95;;;3.60;85.50;;;;;;5049936;28;20052;-67
2021/01/05 12:24:20;;;;;;;22.55;11.77;;;3.60;85.50;;;;;;5049945;28;20060;-67
2021/01/05 12:26:46;;;;;;;24.05;11.95;;;3.60;85.50;;;;;;5050051;28;20024;-67
2021/01/05 12:29:17;;;;;;;19.33;10.70;;;3.60;85.60;;;;;;5050358;28;20071;-67
2021/01/05 12:31:46;;;;;;;24.23;11.75;;;3.60;85.50;;;;;;5049991;28;20413;-67
2021/01/05 12:34:13;;;;;;;20.58;11.52;;;3.70;85.50;;;;;;5047464;28;20327;-67
2021/01/05 12:36:41;;;;;;;20.30;10.57;;;3.70;85.50;;;;;;5044615;28;20059;-67
2021/01/05 12:39:15;;;;;;;19.52;10.80;;;3.60;85.40;;;;;;5049811;28;20033;-67
2021/01/05 12:41:41;;;;;;;19.17;11.15;;;3.70;85.50;;;;;;5050071;28;20029;-67
2021/01/05 12:44:08;;;;;;;19.83;11.77;;;3.70;85.30;;;;;;5049310;28;20058;-67
2021/01/05 12:46:36;;;;;;;18.17;10.95;;;3.70;85.40;;;;;;5050023;28;20540;-67
2021/01/05 12:49:03;;;;;;;19.33;10.88;;;3.70;85.30;;;;;;5049447;28;20134;-67
2021/01/05 12:51:31;;;;;;;19.63;10.60;;;3.80;85.40;;;;;;5049988;28;20050;-67
2021/01/05 12:53:58;;;;;;;18.63;11.43;;;3.80;85.40;;;;;;5047717;28;20524;-67